Time;durP1;ratioP1;P1;durP2;ratioP2;P2;SDS_P1;SDS_P2;PMS_P1;PMS_P2;Temp;Humidity;BMP_temperature;BMP_pressure;BME280_temperature;BME280_humidity;BME280_pressure;Samples;Min_cycle;Max_cycle;Signal;HPM_P1;HPM_P2
2022/04/10 00:00:54;;;;;;;22.38;4.53;;;;;;;;;;5049316;28;20041;-61
2022/04/10 00:03:20;;;;;;;24.13;4.72;;;;;;;;;;5048906;28;20217;-60
2022/04/10 00:05:46;;;;;;;24.48;4.63;;;;;;;;;;5049546;28;20490;-60
2022/04/10 00:08:12;;;;;;;24.35;5.00;;;;;;;;;;5047406;28;20131;-61
2022/04/10 00:10:39;;;;;;;25.80;5.13;;;;;;;;;;5048468;28;20047;-61
2022/04/10 00:13:05;;;;;;;24.20;5.03;;;;;;;;;;5048024;28;20040;-61
2022/04/10 00:15:31;;;;;;;23.38;5.50;;;;;;;;;;5049479;28;20056;-60
2022/04/10 00:17:57;;;;;;;23.60;4.95;;;;;;;;;;5048180;28;20064;-60
2022/04/10 00:20:23;;;;;;;20.20;4.85;;;;;;;;;;5047231;28;20044;-60
2022/04/10 00:22:49;;;;;;;28.88;5.20;;;;;;;;;;5048795;28;20281;-60
2022/04/10 00:25:16;;;;;;;24.05;4.47;;;;;;;;;;5047080;28;20088;-61
2022/04/10 00:27:42;;;;;;;20.42;4.30;;;;;;;;;;5031194;28;20064;-60
2022/04/10 00:30:13;;;;;;;19.27;4.07;;;;;;;;;;5048388;28;20350;-60
2022/04/10 00:32:39;;;;;;;20.67;4.45;;;;;;;;;;5049279;28;20045;-60
2022/04/10 00:35:06;;;;;;;24.00;5.20;;;;;;;;;;5047313;28;20207;-62
2022/04/10 00:37:41;;;;;;;25.10;4.63;;;;;;;;;;5049257;28;20453;-60
2022/04/10 00:40:08;;;;;;;27.83;5.53;;;;;;;;;;5048439;28;20127;-61
2022/04/10 00:42:36;;;;;;;18.48;4.03;;;;;;;;;;5047015;28;20044;-60
2022/04/10 00:45:03;;;;;;;27.30;6.07;;;;;;;;;;5049000;28;20126;-60
2022/04/10 00:47:29;;;;;;;22.48;4.53;;;;;;;;;;5048556;28;20070;-60
2022/04/10 00:50:00;;;;;;;23.45;4.97;;;;;;;;;;5048982;28;20041;-60
2022/04/10 00:52:27;;;;;;;23.92;5.20;;;;;;;;;;5047724;28;20229;-60
2022/04/10 00:54:53;;;;;;;20.73;4.78;;;;;;;;;;5048307;28;20111;-61
2022/04/10 00:57:19;;;;;;;26.73;4.80;;;;;;;;;;5048275;28;20052;-61
2022/04/10 00:59:46;;;;;;;24.63;4.78;;;;;;;;;;5048283;28;20045;-61
2022/04/10 01:02:12;;;;;;;21.75;4.15;;;;;;;;;;5046121;28;20045;-60
2022/04/10 01:04:38;;;;;;;20.35;4.13;;;;;;;;;;5047274;28;20079;-61
2022/04/10 01:07:11;;;;;;;17.38;4.00;;;;;;;;;;5047718;28;20385;-61
2022/04/10 01:09:38;;;;;;;20.58;3.78;;;;;;;;;;5048646;28;20056;-60
2022/04/10 01:12:03;;;;;;;;;;;;;;;;;;5048791;28;20089;-61
2022/04/10 01:14:30;;;;;;;23.80;4.10;;;;;;;;;;5047881;28;20034;-60
2022/04/10 01:16:56;;;;;;;20.73;4.25;;;;;;;;;;5047596;28;20413;-60
2022/04/10 01:19:22;;;;;;;22.38;4.05;;;;;;;;;;5029868;28;20345;-60
2022/04/10 01:21:51;;;;;;;19.30;4.20;;;;;;;;;;5046210;28;20742;-61
2022/04/10 01:24:18;;;;;;;20.67;4.38;;;;;;;;;;5047906;28;20052;-60
2022/04/10 01:26:45;;;;;;;18.83;4.05;;;;;;;;;;5046257;28;20147;-60
2022/04/10 01:29:13;;;;;;;17.25;4.30;;;;;;;;;;5047895;28;20151;-61
2022/04/10 01:31:40;;;;;;;17.88;4.07;;;;;;;;;;5048444;28;20079;-60
2022/04/10 01:34:07;;;;;;;21.85;4.38;;;;;;;;;;5047314;28;20045;-60
2022/04/10 01:36:33;;;;;;;23.50;4.65;;;;;;;;;;5046208;28;20060;-60
2022/04/10 01:38:59;;;;;;;;;;;;;;;;;;5048416;28;20132;-60
2022/04/10 01:41:26;;;;;;;24.45;4.20;;;;;;;;;;5047358;28;20027;-61
2022/04/10 01:43:53;;;;;;;22.85;4.90;;;;;;;;;;5047461;28;20128;-60
2022/04/10 01:46:19;;;;;;;24.13;4.78;;;;;;;;;;5047455;28;20143;-60
2022/04/10 01:48:46;;;;;;;22.50;4.43;;;;;;;;;;5046981;28;20053;-60
2022/04/10 01:51:12;;;;;;;25.25;5.68;;;;;;;;;;5046201;28;20091;-61
2022/04/10 01:53:38;;;;;;;23.85;4.78;;;;;;;;;;5047767;28;20144;-60
2022/04/10 01:56:05;;;;;;;29.35;5.97;;;;;;;;;;5046005;28;20061;-60
2022/04/10 01:58:32;;;;;;;24.08;5.32;;;;;;;;;;5046371;28;20052;-60
2022/04/10 02:01:01;;;;;;;24.70;4.75;;;;;;;;;;5047644;28;20106;-60
2022/04/10 02:03:27;;;;;;;24.98;5.22;;;;;;;;;;5047535;28;20049;-60
2022/04/10 02:05:53;;;;;;;18.77;4.75;;;;;;;;;;5047547;28;20124;-60
2022/04/10 02:08:19;;;;;;;24.08;4.95;;;;;;;;;;5047335;28;20049;-60
2022/04/10 02:10:45;;;;;;;23.08;6.03;;;;;;;;;;5046471;28;20041;-60
2022/04/10 02:13:11;;;;;;;22.75;5.68;;;;;;;;;;5048742;28;20044;-64
2022/04/10 02:15:38;;;;;;;20.20;5.82;;;;;;;;;;5049293;28;20125;-60
2022/04/10 02:18:04;;;;;;;;;;;;;;;;;;5050433;28;20041;-60
2022/04/10 02:20:30;;;;;;;21.58;5.10;;;;;;;;;;5051345;28;20295;-60
2022/04/10 02:22:56;;;;;;;25.98;5.53;;;;;;;;;;5051717;28;20051;-60
2022/04/10 02:25:22;;;;;;;25.35;5.40;;;;;;;;;;5049119;28;20470;-61
2022/04/10 02:27:48;;;;;;;24.00;5.38;;;;;;;;;;5033962;28;20154;-60
2022/04/10 02:30:14;;;;;;;25.70;5.28;;;;;;;;;;5051471;28;20346;-60
2022/04/10 02:32:40;;;;;;;22.52;4.70;;;;;;;;;;5050463;28;20558;-60
2022/04/10 02:35:06;;;;;;;;;;;;;;;;;;5051884;28;20111;-61
2022/04/10 02:37:32;;;;;;;21.23;3.92;;;;;;;;;;5049271;28;19920;-60
2022/04/10 02:39:58;;;;;;;18.58;4.50;;;;;;;;;;5051172;28;20056;-60
2022/04/10 02:42:24;;;;;;;23.02;5.00;;;;;;;;;;5049310;28;20408;-60
2022/04/10 02:44:51;;;;;;;20.02;4.40;;;;;;;;;;5051366;28;20045;-60
2022/04/10 02:47:20;;;;;;;18.92;4.35;;;;;;;;;;5050428;28;20049;-61
2022/04/10 02:49:47;;;;;;;21.48;4.47;;;;;;;;;;5050200;28;20166;-60
2022/04/10 02:52:13;;;;;;;22.05;4.18;;;;;;;;;;5050945;28;20124;-60
2022/04/10 02:54:39;;;;;;;20.60;4.45;;;;;;;;;;5049104;28;20057;-61
2022/04/10 02:57:05;;;;;;;21.67;4.82;;;;;;;;;;5051448;28;20057;-60
2022/04/10 02:59:32;;;;;;;24.15;5.13;;;;;;;;;;5049384;28;20060;-60
2022/04/10 03:01:58;;;;;;;25.85;5.05;;;;;;;;;;5048355;28;20048;-61
2022/04/10 03:04:24;;;;;;;17.90;4.15;;;;;;;;;;5050827;28;20041;-62
2022/04/10 03:06:50;;;;;;;21.65;5.15;;;;;;;;;;5050900;28;20113;-61
2022/04/10 03:09:16;;;;;;;20.00;4.43;;;;;;;;;;5051302;28;20121;-61
2022/04/10 03:11:42;;;;;;;17.83;4.18;;;;;;;;;;5048626;28;20767;-60
2022/04/10 03:14:08;;;;;;;18.58;4.30;;;;;;;;;;5050724;28;20044;-61
2022/04/10 03:16:35;;;;;;;18.30;3.88;;;;;;;;;;5050289;28;20159;-60
2022/04/10 03:19:01;;;;;;;;;;;;;;;;;;5049220;28;20457;-60
2022/04/10 03:21:27;;;;;;;14.68;3.42;;;;;;;;;;5050373;28;20018;-62
2022/04/10 03:23:53;;;;;;;19.67;4.25;;;;;;;;;;5049881;28;20045;-61
2022/04/10 03:26:19;;;;;;;16.40;3.85;;;;;;;;;;5049929;28;20438;-60
2022/04/10 03:28:45;;;;;;;18.88;4.28;;;;;;;;;;5048592;28;20041;-60
2022/04/10 03:31:11;;;;;;;17.38;3.38;;;;;;;;;;5049746;28;20045;-60
2022/04/10 03:33:37;;;;;;;17.50;3.80;;;;;;;;;;5049904;28;20099;-60
2022/04/10 03:36:04;;;;;;;19.90;4.00;;;;;;;;;;5048472;28;20067;-60
2022/04/10 03:38:30;;;;;;;;;;;;;;;;;;5050408;28;20129;-61
2022/04/10 03:40:56;;;;;;;17.13;3.75;;;;;;;;;;5050695;28;20094;-60
2022/04/10 03:43:22;;;;;;;19.73;3.50;;;;;;;;;;5050017;28;20102;-60
2022/04/10 03:45:48;;;;;;;13.35;3.33;;;;;;;;;;5049381;28;20060;-60
2022/04/10 03:48:14;;;;;;;18.85;4.30;;;;;;;;;;5048577;28;20426;-60
2022/04/10 03:50:40;;;;;;;14.75;3.78;;;;;;;;;;5048716;28;20499;-61
2022/04/10 03:53:06;;;;;;;17.23;3.33;;;;;;;;;;5049862;28;20098;-60
2022/04/10 03:55:32;;;;;;;14.73;3.47;;;;;;;;;;5048672;28;20130;-61
2022/04/10 03:57:58;;;;;;;11.80;3.15;;;;;;;;;;5050214;28;20152;-60
2022/04/10 04:00:24;;;;;;;14.90;3.75;;;;;;;;;;5049748;28;20086;-60
2022/04/10 04:02:50;;;;;;;13.52;3.28;;;;;;;;;;5049294;28;20642;-60
2022/04/10 04:05:17;;;;;;;14.13;3.20;;;;;;;;;;5049674;28;20374;-60
2022/04/10 04:07:43;;;;;;;14.45;3.40;;;;;;;;;;5048949;28;20051;-60
2022/04/10 04:10:09;;;;;;;18.00;3.67;;;;;;;;;;5049692;28;20480;-60
2022/04/10 04:12:35;;;;;;;;;;;;;;;;;;5049891;28;20057;-60
2022/04/10 04:15:01;;;;;;;14.25;3.42;;;;;;;;;;5048975;28;19997;-60
2022/04/10 04:17:27;;;;;;;15.52;2.92;;;;;;;;;;5049238;28;20125;-60
2022/04/10 04:19:53;;;;;;;13.93;2.75;;;;;;;;;;5049347;28;20053;-60
2022/04/10 04:22:20;;;;;;;10.85;2.92;;;;;;;;;;5049692;28;20059;-60
2022/04/10 04:24:46;;;;;;;15.07;3.20;;;;;;;;;;5048849;28;20041;-60
2022/04/10 04:27:12;;;;;;;18.63;3.20;;;;;;;;;;5048827;28;20033;-60
2022/04/10 04:29:38;;;;;;;15.52;3.28;;;;;;;;;;5047547;28;20194;-61
2022/04/10 04:32:05;;;;;;;13.43;2.58;;;;;;;;;;5049593;28;20121;-61
2022/04/10 04:34:31;;;;;;;13.52;3.10;;;;;;;;;;5047141;28;20387;-60
2022/04/10 04:36:57;;;;;;;13.60;3.17;;;;;;;;;;5043640;28;20474;-60
2022/04/10 04:39:26;;;;;;;12.68;3.42;;;;;;;;;;5042838;28;20055;-61
2022/04/10 04:41:52;;;;;;;13.07;2.70;;;;;;;;;;5045652;28;20060;-61
2022/04/10 04:44:18;;;;;;;12.02;3.28;;;;;;;;;;5049109;28;20045;-62
2022/04/10 04:46:44;;;;;;;13.23;2.97;;;;;;;;;;5047945;28;20056;-61
2022/04/10 04:49:10;;;;;;;10.57;3.25;;;;;;;;;;5047640;28;20040;-60
2022/04/10 04:51:36;;;;;;;12.95;3.13;;;;;;;;;;5047776;28;20349;-61
2022/04/10 04:54:03;;;;;;;13.75;2.95;;;;;;;;;;5047644;28;20045;-60
2022/04/10 04:56:30;;;;;;;15.48;3.58;;;;;;;;;;5046935;28;20064;-60
2022/04/10 04:58:56;;;;;;;13.90;2.90;;;;;;;;;;5045593;28;20049;-60
2022/04/10 05:01:22;;;;;;;11.32;3.10;;;;;;;;;;5047037;28;20045;-61
2022/04/10 05:03:51;;;;;;;15.07;3.20;;;;;;;;;;5047030;28;20128;-60
2022/04/10 05:06:18;;;;;;;16.20;3.10;;;;;;;;;;5047797;28;20060;-60
2022/04/10 05:08:47;;;;;;;14.50;3.90;;;;;;;;;;5046333;28;20102;-61
2022/04/10 05:11:14;;;;;;;14.43;3.03;;;;;;;;;;5045524;28;20063;-61
2022/04/10 05:13:40;;;;;;;15.57;3.67;;;;;;;;;;5046366;28;20049;-61
2022/04/10 05:16:06;;;;;;;;;;;;;;;;;;5045451;28;20354;-61
2022/04/10 05:18:32;;;;;;;11.82;3.05;;;;;;;;;;5046142;28;19977;-61
2022/04/10 05:20:58;;;;;;;16.98;3.75;;;;;;;;;;5045123;28;20152;-61
2022/04/10 05:23:27;;;;;;;17.50;3.58;;;;;;;;;;5045579;28;20132;-61
2022/04/10 05:25:54;;;;;;;12.60;3.53;;;;;;;;;;5046463;28;20095;-61
2022/04/10 05:28:22;;;;;;;13.55;3.40;;;;;;;;;;5046988;28;20041;-61
2022/04/10 05:30:48;;;;;;;15.18;3.58;;;;;;;;;;5044759;28;20130;-61
2022/04/10 05:33:14;;;;;;;22.17;4.25;;;;;;;;;;5044101;28;20060;-62
2022/04/10 05:35:40;;;;;;;;;;;;;;;;;;5044852;28;20095;-61
2022/04/10 05:38:06;;;;;;;16.17;3.90;;;;;;;;;;5046689;28;20009;-61
2022/04/10 05:40:32;;;;;;;16.25;3.20;;;;;;;;;;5048148;28;20419;-61
2022/04/10 05:42:59;;;;;;;20.27;3.78;;;;;;;;;;5047892;28;20139;-60
2022/04/10 05:45:26;;;;;;;14.02;3.60;;;;;;;;;;5048199;28;20180;-61
2022/04/10 05:47:52;;;;;;;17.60;3.65;;;;;;;;;;5045064;28;20045;-61
2022/04/10 05:50:18;;;;;;;13.43;3.75;;;;;;;;;;5047548;28;20071;-60
2022/04/10 05:52:46;;;;;;;18.85;3.75;;;;;;;;;;5046767;28;20520;-61
2022/04/10 05:55:13;;;;;;;19.17;3.65;;;;;;;;;;5047540;28;20141;-61
2022/04/10 05:57:39;;;;;;;15.55;4.10;;;;;;;;;;5048745;28;20182;-62
2022/04/10 06:00:13;;;;;;;14.75;3.85;;;;;;;;;;5047651;28;20100;-61
2022/04/10 06:02:40;;;;;;;15.73;3.65;;;;;;;;;;5048285;28;20037;-61
2022/04/10 06:05:06;;;;;;;17.98;3.88;;;;;;;;;;5044361;28;20061;-61
2022/04/10 06:07:32;;;;;;;14.63;3.63;;;;;;;;;;5045523;28;20453;-61
2022/04/10 06:09:59;;;;;;;12.05;3.78;;;;;;;;;;5045843;28;20048;-61
2022/04/10 06:12:25;;;;;;;22.95;4.05;;;;;;;;;;5044033;28;20056;-62
2022/04/10 06:14:51;;;;;;;16.80;3.65;;;;;;;;;;5044009;28;20041;-62
2022/04/10 06:17:20;;;;;;;25.08;4.53;;;;;;;;;;5043697;28;20103;-62
2022/04/10 06:19:46;;;;;;;17.63;3.67;;;;;;;;;;5041832;28;20048;-62
2022/04/10 06:22:14;;;;;;;18.13;3.95;;;;;;;;;;5036964;28;20163;-62
2022/04/10 06:24:41;;;;;;;18.33;4.47;;;;;;;;;;5033434;28;20122;-62
2022/04/10 06:27:07;;;;;;;17.67;4.50;;;;;;;;;;5034539;28;20079;-60
2022/04/10 06:29:33;;;;;;;16.20;3.75;;;;;;;;;;5034867;28;20049;-61
2022/04/10 06:31:59;;;;;;;17.58;3.95;;;;;;;;;;5044891;28;20120;-61
2022/04/10 06:34:25;;;;;;;16.15;3.72;;;;;;;;;;5023454;28;20114;-60
2022/04/10 06:36:51;;;;;;;16.20;3.92;;;;;;;;;;5045613;28;20041;-60
2022/04/10 06:39:17;;;;;;;18.15;3.92;;;;;;;;;;5044434;28;20045;-61
2022/04/10 06:41:43;;;;;;;18.20;4.00;;;;;;;;;;5046739;28;20072;-61
2022/04/10 06:44:09;;;;;;;;;;;;;;;;;;5028633;28;20538;-60
2022/04/10 06:46:36;;;;;;;15.95;4.05;;;;;;;;;;5038404;28;20021;-60
2022/04/10 06:49:02;;;;;;;;;;;;;;;;;;5036796;28;20234;-60
2022/04/10 06:51:28;;;;;;;21.25;4.28;;;;;;;;;;5034418;28;20032;-60
2022/04/10 06:53:54;;;;;;;18.08;4.07;;;;;;;;;;5037766;28;20049;-62
2022/04/10 06:56:20;;;;;;;17.90;4.90;;;;;;;;;;5040942;28;20068;-61
2022/04/10 06:58:46;;;;;;;;;;;;;;;;;;5040544;28;20076;-61
2022/04/10 07:01:13;;;;;;;13.65;3.80;;;;;;;;;;5040243;28;19952;-61
2022/04/10 07:03:39;;;;;;;18.85;4.20;;;;;;;;;;5047975;28;20117;-62
2022/04/10 07:06:06;;;;;;;21.80;4.70;;;;;;;;;;5050146;28;20125;-61
2022/04/10 07:08:37;;;;;;;18.85;4.20;;;;;;;;;;5046604;28;20041;-61
2022/04/10 07:11:03;;;;;;;15.18;4.05;;;;;;;;;;5043864;28;20124;-61
2022/04/10 07:13:29;;;;;;;20.65;5.00;;;;;;;;;;5034402;28;20149;-62
2022/04/10 07:15:55;;;;;;;18.13;4.50;;;;;;;;;;5031353;28;20037;-60
2022/04/10 07:18:21;;;;;;;17.15;3.80;;;;;;;;;;5037146;28;20052;-62
2022/04/10 07:20:47;;;;;;;18.55;3.92;;;;;;;;;;5042604;28;20499;-62
2022/04/10 07:25:58;;;;;;;15.10;4.50;;;;;;;;;;5050369;28;20106;-63
2022/04/10 07:28:27;;;;;;;26.30;4.88;;;;;;;;;;5040470;28;20087;-61
2022/04/10 07:30:53;;;;;;;16.55;3.72;;;;;;;;;;5032719;28;20435;-61
2022/04/10 07:33:19;;;;;;;17.48;3.78;;;;;;;;;;5044340;28;20150;-61
2022/04/10 07:35:45;;;;;;;20.00;3.80;;;;;;;;;;5046477;28;20052;-61
2022/04/10 07:38:12;;;;;;;15.85;3.78;;;;;;;;;;5042693;28;20102;-61
2022/04/10 07:40:38;;;;;;;12.77;3.25;;;;;;;;;;5048666;28;20088;-61
2022/04/10 07:43:05;;;;;;;17.77;3.90;;;;;;;;;;5048854;28;20045;-62
2022/04/10 07:48:15;;;;;;;16.63;3.90;;;;;;;;;;5030093;28;20053;-62
2022/04/10 07:50:42;;;;;;;11.07;3.42;;;;;;;;;;5048567;28;20041;-62
2022/04/10 07:53:08;;;;;;;11.55;3.05;;;;;;;;;;5048372;28;20489;-61
2022/04/10 07:55:34;;;;;;;15.57;3.33;;;;;;;;;;5050086;28;20053;-61
2022/04/10 07:58:00;;;;;;;15.70;3.42;;;;;;;;;;5050483;28;20048;-60
2022/04/10 08:00:32;;;;;;;14.73;3.97;;;;;;;;;;5047757;28;20127;-61
2022/04/10 08:02:58;;;;;;;19.65;3.47;;;;;;;;;;5050512;28;20136;-61
2022/04/10 08:05:24;;;;;;;17.75;3.95;;;;;;;;;;5049848;28;20154;-62
2022/04/10 08:07:50;;;;;;;13.25;2.75;;;;;;;;;;5049088;28;20056;-61
2022/04/10 08:10:16;;;;;;;;;;;;;;;;;;5048244;28;20062;-61
2022/04/10 08:12:43;;;;;;;14.50;3.88;;;;;;;;;;5048391;28;19921;-63
2022/04/10 08:15:09;;;;;;;17.52;4.63;;;;;;;;;;5048728;28;20056;-62
2022/04/10 08:17:35;;;;;;;13.63;3.55;;;;;;;;;;5049710;28;20045;-62
2022/04/10 08:20:04;;;;;;;16.23;3.33;;;;;;;;;;5045230;28;20065;-63
2022/04/10 08:22:33;;;;;;;18.75;3.88;;;;;;;;;;5050055;28;20045;-62
2022/04/10 08:25:02;;;;;;;18.00;4.10;;;;;;;;;;5048417;28;20049;-62
2022/04/10 08:27:29;;;;;;;17.23;3.72;;;;;;;;;;5048509;28;20088;-61
2022/04/10 08:29:55;;;;;;;;;;;;;;;;;;5032085;28;20071;-63
2022/04/10 08:32:24;;;;;;;20.05;3.28;;;;;;;;;;5048461;28;20000;-62
2022/04/10 08:34:53;;;;;;;17.52;2.95;;;;;;;;;;5045256;28;20068;-61
2022/04/10 08:37:19;;;;;;;19.35;3.75;;;;;;;;;;5048395;28;20453;-62
2022/04/10 08:39:45;;;;;;;17.73;3.10;;;;;;;;;;5049751;28;20401;-61
2022/04/10 08:42:12;;;;;;;15.88;3.08;;;;;;;;;;5049704;28;20049;-63
2022/04/10 08:44:38;;;;;;;14.63;3.00;;;;;;;;;;5043124;28;20080;-61
2022/04/10 08:47:04;;;;;;;17.88;3.42;;;;;;;;;;5037379;28;20069;-60
2022/04/10 08:49:31;;;;;;;15.60;3.15;;;;;;;;;;5039835;28;20049;-61
2022/04/10 08:51:58;;;;;;;14.40;3.10;;;;;;;;;;5043803;28;20121;-61
2022/04/10 08:54:25;;;;;;;18.55;3.63;;;;;;;;;;5044869;28;20458;-62
2022/04/10 08:56:52;;;;;;;15.07;3.30;;;;;;;;;;5042830;28;20461;-62
2022/04/10 08:59:18;;;;;;;13.82;2.90;;;;;;;;;;5040548;28;20048;-61
2022/04/10 09:01:44;;;;;;;18.67;4.22;;;;;;;;;;5047874;28;20037;-62
2022/04/10 09:04:10;;;;;;;18.15;3.50;;;;;;;;;;5046814;28;20461;-61
2022/04/10 09:06:40;;;;;;;13.75;3.53;;;;;;;;;;5045271;28;20049;-62
2022/04/10 09:09:12;;;;;;;18.02;3.42;;;;;;;;;;5045491;28;20045;-61
2022/04/10 09:11:39;;;;;;;13.10;2.70;;;;;;;;;;5044583;28;20175;-62
2022/04/10 09:14:07;;;;;;;9.07;2.58;;;;;;;;;;5046457;28;20049;-62
2022/04/10 09:16:33;;;;;;;14.70;3.08;;;;;;;;;;5045596;28;20261;-61
2022/04/10 09:19:01;;;;;;;12.75;3.03;;;;;;;;;;5047428;28;20049;-60
2022/04/10 09:21:29;;;;;;;14.73;3.13;;;;;;;;;;5047771;28;20066;-61
2022/04/10 09:23:59;;;;;;;10.68;2.90;;;;;;;;;;5047076;28;20072;-60
2022/04/10 09:26:26;;;;;;;11.77;2.90;;;;;;;;;;5048782;28;20057;-61
2022/04/10 09:29:13;;;;;;;12.70;2.88;;;;;;;;;;5048980;28;20049;-61
2022/04/10 09:31:39;;;;;;;12.98;2.42;;;;;;;;;;5048405;28;20063;-61
2022/04/10 09:34:06;;;;;;;15.18;2.92;;;;;;;;;;5049249;28;20131;-61
2022/04/10 09:36:46;;;;;;;13.52;3.03;;;;;;;;;;5047347;28;20049;-61
2022/04/10 09:39:13;;;;;;;15.23;2.47;;;;;;;;;;5049443;28;20456;-61
2022/04/10 09:41:40;;;;;;;15.85;3.30;;;;;;;;;;5048852;28;20049;-61
2022/04/10 09:44:25;;;;;;;11.93;2.88;;;;;;;;;;5049300;28;20053;-60
2022/04/10 09:47:07;;;;;;;20.08;3.20;;;;;;;;;;5049468;28;20350;-64
2022/04/10 09:49:35;;;;;;;13.82;2.65;;;;;;;;;;5048679;28;20123;-62
2022/04/10 09:52:04;;;;;;;14.80;3.50;;;;;;;;;;5049149;28;20051;-61
2022/04/10 09:54:52;;;;;;;10.50;2.83;;;;;;;;;;5048428;28;20084;-61
2022/04/10 09:57:18;;;;;;;;;;;;;;;;;;5049235;28;20095;-62
2022/04/10 09:59:44;;;;;;;18.65;2.97;;;;;;;;;;5048537;28;19925;-62
2022/04/10 10:02:11;;;;;;;9.98;2.70;;;;;;;;;;5048929;28;20479;-62
2022/04/10 10:04:38;;;;;;;14.98;3.05;;;;;;;;;;5048780;28;20064;-61
2022/04/10 10:07:06;;;;;;;16.35;3.10;;;;;;;;;;5047533;28;20049;-60
2022/04/10 10:09:33;;;;;;;14.57;3.00;;;;;;;;;;5048611;28;20053;-60
2022/04/10 10:12:02;;;;;;;15.20;2.80;;;;;;;;;;5047565;28;20123;-61
2022/04/10 10:14:33;;;;;;;18.27;2.65;;;;;;;;;;5048520;28;20159;-61
2022/04/10 10:16:59;;;;;;;12.38;2.58;;;;;;;;;;5048912;28;20116;-62
2022/04/10 10:19:26;;;;;;;13.90;2.95;;;;;;;;;;5048423;28;20056;-62
2022/04/10 10:21:56;;;;;;;14.68;3.83;;;;;;;;;;5049091;28;20412;-61
2022/04/10 10:24:37;;;;;;;13.18;2.88;;;;;;;;;;5048723;28;20049;-63
2022/04/10 10:27:03;;;;;;;12.93;2.90;;;;;;;;;;5047943;28;20091;-62
2022/04/10 10:29:35;;;;;;;12.35;2.80;;;;;;;;;;5048095;28;20044;-63
2022/04/10 10:32:07;;;;;;;13.75;2.92;;;;;;;;;;5048561;28;20077;-61
2022/04/10 10:34:34;;;;;;;11.40;2.90;;;;;;;;;;5050871;28;20430;-62
2022/04/10 10:37:03;;;;;;;12.55;2.83;;;;;;;;;;5051113;28;20140;-61
2022/04/10 10:39:30;;;;;;;14.55;3.33;;;;;;;;;;5052146;28;20045;-60
2022/04/10 10:42:10;;;;;;;13.77;2.90;;;;;;;;;;5052419;28;20057;-61
2022/04/10 10:44:40;;;;;;;14.60;2.92;;;;;;;;;;5051981;28;20578;-62
2022/04/10 10:47:15;;;;;;;13.68;3.22;;;;;;;;;;5051597;28;20140;-62
2022/04/10 10:49:45;;;;;;;12.18;2.28;;;;;;;;;;5049885;28;20149;-62
2022/04/10 10:52:13;;;;;;;15.77;3.15;;;;;;;;;;5051501;28;20045;-62
2022/04/10 10:54:50;;;;;;;12.15;2.72;;;;;;;;;;5049326;28;20061;-62
2022/04/10 10:57:26;;;;;;;14.20;2.78;;;;;;;;;;5051956;28;20064;-62
2022/04/10 10:59:53;;;;;;;10.43;2.65;;;;;;;;;;5051126;28;20053;-62
2022/04/10 11:02:21;;;;;;;8.98;2.53;;;;;;;;;;5050016;28;20091;-62
2022/04/10 11:04:47;;;;;;;12.15;2.65;;;;;;;;;;5050818;28;20053;-62
2022/04/10 11:07:16;;;;;;;17.40;3.45;;;;;;;;;;5051068;28;20041;-61
2022/04/10 11:09:52;;;;;;;10.68;2.40;;;;;;;;;;5050638;28;20442;-61
2022/04/10 11:12:21;;;;;;;10.35;2.55;;;;;;;;;;5033161;28;20053;-62
2022/04/10 11:14:50;;;;;;;16.48;2.88;;;;;;;;;;5049298;28;20406;-63
2022/04/10 11:17:19;;;;;;;18.15;2.83;;;;;;;;;;5051192;28;20480;-63
2022/04/10 11:19:56;;;;;;;13.75;2.50;;;;;;;;;;5049158;28;20056;-61
2022/04/10 11:22:23;;;;;;;12.88;2.58;;;;;;;;;;5049451;28;20095;-61
2022/04/10 11:24:53;;;;;;;12.82;2.40;;;;;;;;;;5050188;28;20124;-61
2022/04/10 11:27:38;;;;;;;8.30;2.05;;;;;;;;;;5050769;28;20220;-62
2022/04/10 11:30:04;;;;;;;8.18;2.25;;;;;;;;;;5050834;28;20543;-63
2022/04/10 11:32:40;;;;;;;12.55;2.63;;;;;;;;;;5050239;28;20049;-62
2022/04/10 11:35:13;;;;;;;14.68;2.60;;;;;;;;;;5050480;28;20473;-61
2022/04/10 11:37:39;;;;;;;10.85;2.65;;;;;;;;;;5050076;28;20174;-61
2022/04/10 11:40:07;;;;;;;9.90;2.33;;;;;;;;;;5049794;28;20045;-62
2022/04/10 11:42:33;;;;;;;9.80;2.22;;;;;;;;;;5049741;28;20060;-62
2022/04/10 11:44:59;;;;;;;;;;;;;;;;;;5031904;28;20045;-61
2022/04/10 11:47:25;;;;;;;8.05;2.10;;;;;;;;;;5050460;28;19929;-62
2022/04/10 11:49:53;;;;;;;13.00;2.80;;;;;;;;;;5049966;28;20196;-61
2022/04/10 11:52:20;;;;;;;10.75;2.78;;;;;;;;;;5050236;28;20060;-61
2022/04/10 11:54:50;;;;;;;8.88;1.98;;;;;;;;;;5049480;28;20064;-61
2022/04/10 11:57:16;;;;;;;12.25;2.78;;;;;;;;;;5048884;28;20128;-61
2022/04/10 11:59:43;;;;;;;12.07;2.67;;;;;;;;;;5049134;28;20044;-61
2022/04/10 12:02:14;;;;;;;10.75;2.40;;;;;;;;;;5050127;28;20049;-61
2022/04/10 12:04:41;;;;;;;12.48;2.83;;;;;;;;;;5049064;28;20485;-62
2022/04/10 12:07:13;;;;;;;11.55;2.90;;;;;;;;;;5050115;28;20041;-60
2022/04/10 12:09:40;;;;;;;8.27;2.30;;;;;;;;;;5048030;28;20080;-61
2022/04/10 12:12:07;;;;;;;9.25;2.45;;;;;;;;;;5049249;28;20055;-61
2022/04/10 12:14:33;;;;;;;;;;;;;;;;;;5048892;28;20114;-61
2022/04/10 12:16:59;;;;;;;8.90;2.45;;;;;;;;;;5049334;28;19928;-61
2022/04/10 12:19:35;;;;;;;10.32;2.50;;;;;;;;;;5047756;28;20091;-61
2022/04/10 12:22:08;;;;;;;10.45;2.70;;;;;;;;;;5048514;28;20052;-62
2022/04/10 12:24:36;;;;;;;11.15;2.78;;;;;;;;;;5048343;28;20453;-61
2022/04/10 12:27:04;;;;;;;8.48;2.30;;;;;;;;;;5049659;28;20048;-61
2022/04/10 12:29:31;;;;;;;12.98;2.72;;;;;;;;;;5049572;28;20062;-62
2022/04/10 12:31:58;;;;;;;18.10;2.90;;;;;;;;;;5048677;28;20223;-61
2022/04/10 12:34:24;;;;;;;14.80;3.05;;;;;;;;;;5049563;28;20358;-62
2022/04/10 12:36:51;;;;;;;14.70;2.47;;;;;;;;;;5048870;28;20117;-62
2022/04/10 12:39:27;;;;;;;19.50;3.05;;;;;;;;;;5047880;28;20492;-61
2022/04/10 12:41:57;;;;;;;14.65;2.80;;;;;;;;;;5048708;28;20040;-61
2022/04/10 12:44:23;;;;;;;11.93;2.70;;;;;;;;;;5047675;28;20080;-61
2022/04/10 12:46:49;;;;;;;10.52;2.70;;;;;;;;;;5047193;28;20045;-61
2022/04/10 12:49:19;;;;;;;11.95;2.85;;;;;;;;;;5049134;28;20136;-61
2022/04/10 12:51:48;;;;;;;13.75;3.08;;;;;;;;;;5048794;28;20077;-62
2022/04/10 12:54:14;;;;;;;11.85;2.47;;;;;;;;;;5049181;28;20114;-61
2022/04/10 12:56:40;;;;;;;7.45;2.45;;;;;;;;;;5047608;28;20053;-62
2022/04/10 12:59:07;;;;;;;8.68;2.40;;;;;;;;;;5047524;28;20123;-61
2022/04/10 13:01:33;;;;;;;10.57;2.70;;;;;;;;;;5049245;28;20051;-61
2022/04/10 13:04:00;;;;;;;14.20;2.97;;;;;;;;;;5046801;28;20221;-61
2022/04/10 13:06:45;;;;;;;11.65;2.45;;;;;;;;;;5048398;28;20486;-61
2022/04/10 13:09:15;;;;;;;9.85;2.47;;;;;;;;;;5048598;28;20073;-61
2022/04/10 13:11:41;;;;;;;14.07;3.08;;;;;;;;;;5047043;28;20055;-62
2022/04/10 13:14:10;;;;;;;13.70;2.63;;;;;;;;;;5063600;28;20065;-60
2022/04/10 13:16:37;;;;;;;11.90;2.53;;;;;;;;;;5048215;28;20056;-61
2022/04/10 13:19:04;;;;;;;11.60;2.90;;;;;;;;;;5048167;28;20049;-61
2022/04/10 13:21:30;;;;;;;8.95;2.40;;;;;;;;;;5048365;28;20088;-61
2022/04/10 13:23:56;;;;;;;10.90;2.60;;;;;;;;;;5046016;28;20067;-61
2022/04/10 13:26:26;;;;;;;9.20;2.22;;;;;;;;;;5048451;28;20049;-62
2022/04/10 13:28:52;;;;;;;14.65;2.85;;;;;;;;;;5029441;28;20412;-61
2022/04/10 13:31:19;;;;;;;10.68;2.75;;;;;;;;;;5047840;28;20103;-61
2022/04/10 13:33:45;;;;;;;;;;;;;;;;;;5047548;28;20191;-61
2022/04/10 13:36:14;;;;;;;9.50;2.33;;;;;;;;;;5048189;28;19925;-60
2022/04/10 13:38:40;;;;;;;13.48;3.40;;;;;;;;;;5047828;28;20052;-62
2022/04/10 13:41:06;;;;;;;8.98;2.42;;;;;;;;;;5029112;28;20102;-61
2022/04/10 13:43:32;;;;;;;;;;;;;;;;;;5048442;28;20437;-61
2022/04/10 13:45:58;;;;;;;9.05;2.20;;;;;;;;;;5047851;28;19988;-61
2022/04/10 13:48:25;;;;;;;8.32;2.25;;;;;;;;;;5047751;28;20375;-60
2022/04/10 13:50:51;;;;;;;14.38;2.60;;;;;;;;;;5045997;28;20489;-60
2022/04/10 13:53:18;;;;;;;9.48;2.50;;;;;;;;;;5048289;28;20101;-61
2022/04/10 13:55:45;;;;;;;9.15;2.70;;;;;;;;;;5047500;28;20061;-60
2022/04/10 13:58:11;;;;;;;15.98;2.67;;;;;;;;;;5047272;28;20101;-61
2022/04/10 14:00:39;;;;;;;10.25;2.50;;;;;;;;;;5047631;28;20132;-61
2022/04/10 14:03:05;;;;;;;9.90;2.33;;;;;;;;;;5046887;28;20041;-61
2022/04/10 14:05:31;;;;;;;14.60;2.33;;;;;;;;;;5046900;28;20190;-61
2022/04/10 14:07:57;;;;;;;12.02;2.75;;;;;;;;;;5047637;28;20073;-61
2022/04/10 14:10:23;;;;;;;9.15;2.20;;;;;;;;;;5050318;28;20056;-61
2022/04/10 14:12:49;;;;;;;9.82;2.22;;;;;;;;;;5050756;28;20048;-62
2022/04/10 14:15:15;;;;;;;14.43;2.63;;;;;;;;;;5051005;28;20144;-61
2022/04/10 14:17:41;;;;;;;12.38;2.20;;;;;;;;;;5051518;28;20110;-60
2022/04/10 14:20:08;;;;;;;13.88;2.80;;;;;;;;;;5032870;28;20053;-61
2022/04/10 14:22:34;;;;;;;;;;;;;;;;;;5051621;28;20160;-61
2022/04/10 14:25:01;;;;;;;12.02;2.45;;;;;;;;;;5050908;28;19973;-61
2022/04/10 14:27:28;;;;;;;12.90;2.40;;;;;;;;;;5050952;28;20068;-60
2022/04/10 14:29:54;;;;;;;9.63;2.35;;;;;;;;;;5049049;28;20128;-61
2022/04/10 14:32:21;;;;;;;12.48;2.58;;;;;;;;;;5051639;28;20052;-61
2022/04/10 14:34:47;;;;;;;13.85;2.70;;;;;;;;;;5051282;28;20044;-60
2022/04/10 14:37:13;;;;;;;13.50;2.80;;;;;;;;;;5050900;28;20474;-61
2022/04/10 14:39:40;;;;;;;12.15;2.38;;;;;;;;;;5051231;28;20049;-61
2022/04/10 14:42:07;;;;;;;9.18;2.10;;;;;;;;;;5049344;28;20060;-61
2022/04/10 14:44:33;;;;;;;11.70;2.30;;;;;;;;;;5051460;28;20127;-61